createdAt,value
2022-10-09T00:00:07.932Z,102205.44
2022-10-09T00:02:36.104Z,102276.28
2022-10-09T00:05:03.976Z,102278.91
2022-10-09T00:07:31.829Z,102286.69
2022-10-09T00:10:00.904Z,102297.06
2022-10-09T00:12:28.645Z,102290.13
2022-10-09T00:14:56.410Z,102287.56
2022-10-09T00:17:24.198Z,102291.06
2022-10-09T00:19:51.960Z,102292.75
2022-10-09T00:22:19.698Z,102295.34
2022-10-09T00:24:47.453Z,102298.81
2022-10-09T00:27:16.568Z,102305.75
2022-10-09T00:29:44.318Z,102311.81
2022-10-09T00:32:12.048Z,102299.69
2022-10-09T00:34:39.899Z,102326.53
2022-10-09T00:37:07.990Z,102316.97
2022-10-09T00:39:36.040Z,102329.03
2022-10-09T00:42:05.036Z,102316.06
2022-10-09T00:44:51.562Z,102331.66
2022-10-09T00:47:25.165Z,102335.13
2022-10-09T00:49:55.663Z,102331.69
2022-10-09T00:52:26.963Z,102329.00
2022-10-09T00:54:56.038Z,102335.09
2022-10-09T00:57:24.180Z,102343.69
2022-10-09T00:59:53.329Z,102344.63
2022-10-09T01:02:21.313Z,102337.69
2022-10-09T01:04:49.148Z,102347.25
2022-10-09T01:07:29.220Z,102335.88
2022-10-09T01:10:02.800Z,102344.63
2022-10-09T01:12:40.211Z,102345.44
2022-10-09T01:15:18.357Z,102336.81
2022-10-09T01:17:57.325Z,102332.50
2022-10-09T01:20:43.359Z,102343.78
2022-10-09T01:23:39.262Z,102341.19
2022-10-09T01:26:18.438Z,102342.94
2022-10-09T01:28:52.292Z,102336.91
2022-10-09T01:31:22.618Z,102315.25
2022-10-09T01:33:50.999Z,102324.75
2022-10-09T01:36:20.394Z,102337.66
2022-10-09T01:38:49.149Z,102329.91
2022-10-09T01:41:17.326Z,102303.97
2022-10-09T01:43:45.048Z,102326.50
2022-10-09T01:46:23.714Z,102317.81
2022-10-09T01:49:05.910Z,102326.50
2022-10-09T01:51:39.821Z,102328.25
2022-10-09T01:54:10.427Z,102321.28
2022-10-09T01:56:40.522Z,102321.31
2022-10-09T01:59:15.666Z,102313.47
2022-10-09T02:01:46.350Z,102330.81
2022-10-09T02:04:16.158Z,102326.44
2022-10-09T02:06:44.882Z,102323.84
2022-10-09T02:09:15.127Z,102283.03
2022-10-09T02:11:47.881Z,102329.00
2022-10-09T02:14:15.712Z,102330.78
2022-10-09T02:16:48.103Z,102323.31
2022-10-09T02:19:21.680Z,102346.19
2022-10-09T02:21:54.549Z,102341.06
2022-10-09T02:24:24.729Z,102286.34
2022-10-09T02:26:57.370Z,102347.00
2022-10-09T02:29:25.751Z,102346.00
2022-10-09T02:31:55.007Z,102345.31
2022-10-09T02:34:22.922Z,102344.41
2022-10-09T02:36:51.553Z,102339.00
2022-10-09T02:39:19.404Z,102350.31
2022-10-09T02:41:47.171Z,102336.25
2022-10-09T02:44:14.877Z,102332.06
2022-10-09T02:46:42.691Z,102332.00
2022-10-09T02:49:11.806Z,102329.06
2022-10-09T02:51:39.717Z,102334.53
2022-10-09T02:54:07.993Z,102335.34
2022-10-09T02:56:38.946Z,102340.78
2022-10-09T02:59:07.135Z,102340.03
2022-10-09T03:01:34.876Z,102349.53
2022-10-09T03:04:02.712Z,102348.69
2022-10-09T03:06:32.145Z,102346.97
2022-10-09T03:08:59.831Z,102346.94
2022-10-09T03:11:27.974Z,102294.13
2022-10-09T03:13:55.714Z,102336.44
2022-10-09T03:16:25.411Z,102354.50
2022-10-09T03:18:54.100Z,102348.50
2022-10-09T03:21:23.755Z,102360.50
2022-10-09T03:23:53.510Z,102361.53
2022-10-09T03:26:23.416Z,102362.38
2022-10-09T03:28:53.073Z,102374.47
2022-10-09T03:31:47.007Z,102371.94
2022-10-09T03:34:11.474Z,102372.00
2022-10-09T03:36:39.245Z,102359.69
2022-10-09T03:39:08.286Z,102366.81
2022-10-09T03:41:36.026Z,102370.25
2022-10-09T03:44:03.721Z,102308.56
2022-10-09T03:46:31.431Z,102376.88
2022-10-09T03:48:59.165Z,102379.56
2022-10-09T03:51:26.845Z,102374.44
2022-10-09T03:53:54.498Z,102376.78
2022-10-09T03:56:23.513Z,102375.09
2022-10-09T03:58:51.217Z,102375.16
2022-10-09T04:01:18.905Z,102384.59
2022-10-09T04:03:46.700Z,102378.38
2022-10-09T04:06:14.492Z,102387.31
2022-10-09T04:08:42.152Z,102378.34
2022-10-09T04:11:09.891Z,102362.97
2022-10-09T04:13:38.917Z,102378.75
2022-10-09T04:16:09.384Z,102382.31
2022-10-09T04:18:37.038Z,102381.09
2022-10-09T04:21:04.780Z,102382.97
2022-10-09T04:23:32.671Z,102388.31
2022-10-09T04:26:01.210Z,102337.97
2022-10-09T04:28:30.678Z,102350.13
2022-10-09T04:31:00.461Z,102345.81
2022-10-09T04:33:28.459Z,102376.97
2022-10-09T04:35:57.230Z,102380.56
2022-10-09T04:38:25.604Z,102378.72
2022-10-09T04:40:59.591Z,102379.44
2022-10-09T04:43:28.065Z,102373.28
2022-10-09T04:45:55.923Z,102380.19
2022-10-09T04:48:25.191Z,102375.72
2022-10-09T04:50:52.952Z,102376.31
2022-10-09T04:53:20.688Z,102378.13
2022-10-09T04:55:48.447Z,102377.56
2022-10-09T04:58:16.083Z,102374.75
2022-10-09T05:00:46.085Z,102375.66
2022-10-09T05:03:14.688Z,102378.41
2022-10-09T05:05:43.708Z,102371.34
2022-10-09T05:08:11.343Z,102380.06
2022-10-09T05:10:39.085Z,102368.91
2022-10-09T05:13:07.005Z,102380.88
2022-10-09T05:15:37.405Z,102371.28
2022-10-09T05:18:06.150Z,102377.94
2022-10-09T05:20:33.806Z,102390.91
2022-10-09T05:23:02.864Z,102384.06
2022-10-09T05:25:30.634Z,102389.25
2022-10-09T05:28:00.240Z,102393.94
2022-10-09T05:30:28.111Z,102388.44
2022-10-09T05:32:55.809Z,102389.88
2022-10-09T05:35:23.587Z,102394.69
2022-10-09T05:37:51.340Z,102389.69
2022-10-09T05:40:20.367Z,102383.47
2022-10-09T05:42:50.695Z,102393.28
2022-10-09T05:45:18.874Z,102395.41
2022-10-09T05:47:47.210Z,102395.66
2022-10-09T05:50:15.079Z,102389.69
2022-10-09T05:52:42.773Z,102397.53
2022-10-09T05:55:10.739Z,102389.00
2022-10-09T05:57:39.912Z,102395.09
2022-10-09T06:00:09.057Z,102395.88
2022-10-09T06:02:36.897Z,102402.09
2022-10-09T06:05:04.745Z,102397.84
2022-10-09T06:07:32.466Z,102388.84
2022-10-09T06:10:00.157Z,102397.00
2022-10-09T06:12:27.907Z,102396.13
2022-10-09T06:14:57.216Z,102395.00
2022-10-09T06:17:25.061Z,102222.00
2022-10-09T06:19:52.754Z,102405.44
2022-10-09T06:22:20.753Z,102409.09
2022-10-09T06:24:48.619Z,102404.59
2022-10-09T06:27:16.495Z,102412.41
2022-10-09T06:29:44.808Z,102416.66
2022-10-09T06:32:14.100Z,102415.88
2022-10-09T06:34:42.158Z,102420.72
2022-10-09T06:37:10.045Z,102423.69
2022-10-09T06:39:38.365Z,102401.00
2022-10-09T06:42:06.772Z,102423.69
2022-10-09T06:44:34.746Z,102427.13
2022-10-09T06:47:02.759Z,102370.94
2022-10-09T06:49:32.146Z,102401.34
2022-10-09T06:51:59.922Z,102434.31
2022-10-09T06:54:28.045Z,102430.03
2022-10-09T06:56:56.362Z,102432.00
2022-10-09T06:59:24.568Z,102413.75
2022-10-09T07:01:52.600Z,102419.03
2022-10-09T07:04:21.786Z,102393.00
2022-10-09T07:06:51.060Z,102415.41
2022-10-09T07:09:18.958Z,102421.50
2022-10-09T07:11:49.422Z,102416.44
2022-10-09T07:14:17.840Z,102423.41
2022-10-09T07:16:47.605Z,102426.00
2022-10-09T07:19:17.578Z,102425.16
2022-10-09T07:21:48.525Z,102426.00
2022-10-09T07:24:20.621Z,102420.81
2022-10-09T07:26:49.266Z,102424.19
2022-10-09T07:29:18.680Z,102417.19
2022-10-09T07:31:46.609Z,102426.34
2022-10-09T07:34:14.618Z,102421.91
2022-10-09T07:36:42.389Z,102429.75
2022-10-09T07:39:10.231Z,102403.00
2022-10-09T07:41:39.294Z,102422.63
2022-10-09T07:44:08.249Z,102430.09
2022-10-09T07:46:36.060Z,102434.78
2022-10-09T07:49:04.490Z,102423.47
2022-10-09T07:51:33.059Z,102432.22
2022-10-09T07:54:02.030Z,102430.38
2022-10-09T07:56:31.799Z,102439.47
2022-10-09T07:59:02.444Z,102433.97
2022-10-09T08:01:32.128Z,102434.53
2022-10-09T08:04:01.405Z,102432.03
2022-10-09T08:06:29.743Z,102417.56
2022-10-09T08:08:59.545Z,102420.78
2022-10-09T08:11:29.124Z,102420.94
2022-10-09T08:13:57.365Z,102422.75
2022-10-09T08:16:28.905Z,102432.78
2022-10-09T08:18:58.353Z,102424.16
2022-10-09T08:21:27.990Z,102424.63
2022-10-09T08:23:57.163Z,102429.50
2022-10-09T08:26:26.779Z,102413.47
2022-10-09T08:28:56.281Z,102427.31
2022-10-09T08:31:26.510Z,102429.88
2022-10-09T08:33:55.023Z,102430.53
2022-10-09T08:36:23.423Z,102443.94
2022-10-09T08:38:51.446Z,102437.22
2022-10-09T08:41:30.173Z,102447.03
2022-10-09T08:44:02.224Z,102395.13
2022-10-09T08:46:40.947Z,102438.94
2022-10-09T08:49:21.506Z,102446.09
2022-10-09T08:51:49.595Z,102453.94
2022-10-09T08:54:30.394Z,102470.13
2022-10-09T08:57:01.903Z,102454.25
2022-10-09T08:59:29.564Z,102450.56
2022-10-09T09:02:08.710Z,102460.47
2022-10-09T09:04:57.665Z,102465.28
2022-10-09T09:07:33.310Z,102456.84
2022-10-09T09:10:05.995Z,102458.81
2022-10-09T09:12:43.950Z,102459.00
2022-10-09T09:15:31.262Z,102457.19
2022-10-09T09:18:12.966Z,102463.59
2022-10-09T09:20:47.438Z,102474.13
2022-10-09T09:23:17.421Z,102471.34
2022-10-09T09:25:46.723Z,102448.53
2022-10-09T09:28:20.351Z,102477.41
2022-10-09T09:30:52.920Z,102471.69
2022-10-09T09:33:26.529Z,102441.75
2022-10-09T09:36:05.012Z,102469.66
2022-10-09T09:38:32.865Z,102480.84
2022-10-09T09:41:00.772Z,102471.50
2022-10-09T09:43:28.844Z,102481.25
2022-10-09T09:45:58.437Z,102475.56
2022-10-09T09:48:35.510Z,102414.03
2022-10-09T09:51:26.964Z,102471.81
2022-10-09T09:53:56.767Z,102477.56
2022-10-09T09:56:53.230Z,102434.19
2022-10-09T09:59:32.909Z,102466.53
2022-10-09T10:02:12.235Z,102463.44
2022-10-09T10:04:50.319Z,102466.81
2022-10-09T10:07:29.627Z,102455.38
2022-10-09T10:10:09.006Z,102460.38
2022-10-09T10:12:41.735Z,102463.56
2022-10-09T10:15:19.215Z,102459.16
2022-10-09T10:17:48.707Z,102460.09
2022-10-09T10:20:18.847Z,102459.59
2022-10-09T10:22:52.536Z,102461.72
2022-10-09T10:25:23.348Z,102460.03
2022-10-09T10:27:57.209Z,102454.88
2022-10-09T10:30:25.057Z,102463.44
2022-10-09T10:33:00.083Z,102461.09
2022-10-09T10:35:33.187Z,102459.88
2022-10-09T10:38:06.744Z,102456.16
2022-10-09T10:40:37.653Z,102431.13
2022-10-09T10:43:15.787Z,102426.78
2022-10-09T10:45:53.769Z,102446.44
2022-10-09T10:48:26.306Z,102447.91
2022-10-09T10:51:06.422Z,102440.38
2022-10-09T10:53:46.414Z,102428.28
2022-10-09T10:56:27.381Z,102430.56
2022-10-09T10:59:10.993Z,102427.72
2022-10-09T11:01:45.390Z,102425.22
2022-10-09T11:04:35.084Z,102425.25
2022-10-09T11:07:14.753Z,102425.72
2022-10-09T11:09:52.932Z,102434.44
2022-10-09T11:12:46.875Z,102420.13
2022-10-09T11:15:23.854Z,102417.34
2022-10-09T11:18:00.247Z,102365.06
2022-10-09T11:20:53.075Z,102405.88
2022-10-09T11:23:34.693Z,102410.81
2022-10-09T11:26:17.070Z,102409.22
2022-10-09T11:28:49.357Z,102410.94
2022-10-09T11:31:20.756Z,102403.84
2022-10-09T11:33:52.833Z,102397.94
2022-10-09T11:36:27.161Z,102392.25
2022-10-09T11:39:00.329Z,102389.41
2022-10-09T11:41:30.637Z,102381.50
2022-10-09T11:44:15.836Z,102387.75
2022-10-09T11:46:50.162Z,102383.19
2022-10-09T11:49:24.465Z,102378.78
2022-10-09T11:51:58.072Z,102372.56
2022-10-09T11:54:28.658Z,102372.06
2022-10-09T11:56:58.746Z,102374.91
2022-10-09T11:59:30.410Z,102358.94
2022-10-09T12:01:59.990Z,102357.50
2022-10-09T12:04:50.589Z,102360.84
2022-10-09T12:07:29.283Z,102354.50
2022-10-09T12:10:02.636Z,102344.66
2022-10-09T12:12:31.179Z,102333.16
2022-10-09T12:14:59.866Z,102336.25
2022-10-09T12:17:37.858Z,102298.44
2022-10-09T12:20:08.770Z,102253.63
2022-10-09T12:22:42.755Z,102248.25
2022-10-09T12:25:26.466Z,102325.81
2022-10-09T12:27:56.164Z,102283.09
2022-10-09T12:30:30.111Z,102320.97
2022-10-09T12:33:02.353Z,102323.19
2022-10-09T12:35:38.681Z,102266.41
2022-10-09T12:38:17.633Z,102305.94
2022-10-09T12:40:49.446Z,102307.63
2022-10-09T12:43:21.727Z,102290.88
2022-10-09T12:45:51.853Z,102299.75
2022-10-09T12:48:23.016Z,102119.66
2022-10-09T12:50:51.389Z,102251.31
2022-10-09T12:53:23.175Z,102162.16
2022-10-09T12:55:55.407Z,102278.44
2022-10-09T12:58:25.751Z,102283.03
2022-10-09T13:00:56.850Z,102275.66
2022-10-09T13:03:27.275Z,102188.81
2022-10-09T13:05:58.188Z,102275.94
2022-10-09T13:08:30.097Z,102244.78
2022-10-09T13:11:10.376Z,102268.38
2022-10-09T13:13:39.296Z,102258.72
2022-10-09T13:16:10.654Z,102263.63
2022-10-09T13:18:39.549Z,102228.03
2022-10-09T13:21:28.999Z,102217.13
2022-10-09T13:24:08.534Z,102184.59
2022-10-09T13:26:40.814Z,102246.66
2022-10-09T13:29:09.337Z,102240.88
2022-10-09T13:31:38.006Z,102241.50
2022-10-09T13:34:13.438Z,102232.03
2022-10-09T13:36:41.611Z,102227.47
2022-10-09T13:39:14.388Z,102192.88
2022-10-09T13:41:44.891Z,102221.31
2022-10-09T13:44:12.991Z,102198.13
2022-10-09T13:46:41.206Z,102224.56
2022-10-09T13:49:09.411Z,102223.31
2022-10-09T13:51:37.734Z,102134.41
2022-10-09T13:54:05.784Z,102168.03
2022-10-09T13:56:34.165Z,102111.25
2022-10-09T13:59:03.677Z,102210.56
2022-10-09T14:01:32.192Z,102219.16
2022-10-09T14:04:00.363Z,102146.28
2022-10-09T14:06:28.754Z,102124.81
2022-10-09T14:08:57.287Z,102203.25
2022-10-09T14:11:25.093Z,102210.75
2022-10-09T14:13:52.892Z,102211.22
2022-10-09T14:16:22.741Z,102199.13
2022-10-09T14:18:50.386Z,102191.66
2022-10-09T14:21:18.129Z,102200.13
2022-10-09T14:23:45.821Z,102188.34
2022-10-09T14:26:13.718Z,102180.16
2022-10-09T14:28:41.791Z,102174.88
2022-10-09T14:31:09.574Z,102178.19
2022-10-09T14:33:38.630Z,102179.66
2022-10-09T14:36:08.014Z,102178.75
2022-10-09T14:38:38.224Z,102174.25
2022-10-09T14:41:06.221Z,102162.94
2022-10-09T14:43:34.099Z,102164.91
2022-10-09T14:46:06.850Z,102137.38
2022-10-09T14:48:34.991Z,102157.41
2022-10-09T14:51:08.691Z,102153.66
2022-10-09T14:53:36.348Z,102158.31
2022-10-09T14:56:04.573Z,102148.09
2022-10-09T14:58:32.697Z,102149.34
2022-10-09T15:01:00.590Z,102152.88
2022-10-09T15:03:30.283Z,102143.34
2022-10-09T15:05:59.149Z,102136.94
2022-10-09T15:08:30.637Z,102136.06
2022-10-09T15:10:58.332Z,102132.69
2022-10-09T15:13:26.171Z,102129.31
2022-10-09T15:15:58.957Z,102129.72
2022-10-09T15:18:26.807Z,102127.91
2022-10-09T15:20:54.625Z,102123.09
2022-10-09T15:23:22.341Z,102129.53
2022-10-09T15:25:52.195Z,102122.34
2022-10-09T15:28:20.446Z,102107.03
2022-10-09T15:30:50.933Z,102077.75
2022-10-09T15:33:19.230Z,102103.91
2022-10-09T15:35:46.945Z,102105.38
2022-10-09T15:38:17.711Z,102107.56
2022-10-09T15:40:48.561Z,102104.06
2022-10-09T15:43:19.764Z,102095.28
2022-10-09T15:45:48.515Z,102085.66
2022-10-09T15:48:17.729Z,102084.00
2022-10-09T15:50:46.620Z,102086.66
2022-10-09T15:53:15.216Z,102089.81
2022-10-09T15:55:43.281Z,102092.94
2022-10-09T15:58:11.288Z,102091.97
2022-10-09T16:00:42.613Z,102081.16
2022-10-09T16:03:10.855Z,102087.47
2022-10-09T16:05:39.530Z,102034.75
2022-10-09T16:08:07.618Z,102072.75
2022-10-09T16:10:35.415Z,102081.47
2022-10-09T16:13:03.651Z,102084.94
2022-10-09T16:15:31.457Z,102079.56
2022-10-09T16:18:00.652Z,102082.03
2022-10-09T16:20:28.440Z,102073.59
2022-10-09T16:22:56.268Z,102079.31
2022-10-09T16:25:24.017Z,102071.97
2022-10-09T16:27:52.008Z,102069.66
2022-10-09T16:30:19.990Z,102067.72
2022-10-09T16:32:48.250Z,102078.16
2022-10-09T16:35:18.453Z,102077.47
2022-10-09T16:37:46.389Z,102064.25
2022-10-09T16:40:14.472Z,102068.22
2022-10-09T16:42:42.663Z,102074.44
2022-10-09T16:45:11.648Z,102074.72
2022-10-09T16:47:40.403Z,102070.41
2022-10-09T16:50:09.149Z,102066.34
2022-10-09T16:52:38.417Z,102071.00
2022-10-09T16:55:07.444Z,102070.00
2022-10-09T16:57:35.401Z,102069.41
2022-10-09T17:00:03.791Z,102076.66
2022-10-09T17:02:31.686Z,102076.19
2022-10-09T17:04:59.564Z,102070.72
2022-10-09T17:07:27.526Z,102068.78
2022-10-09T17:09:56.814Z,102070.63
2022-10-09T17:12:24.781Z,102066.19
2022-10-09T17:14:52.859Z,102073.94
2022-10-09T17:17:20.741Z,102066.69
2022-10-09T17:19:48.704Z,102069.13
2022-10-09T17:22:16.677Z,102032.00
2022-10-09T17:24:44.580Z,102065.56
2022-10-09T17:27:13.813Z,102055.53
2022-10-09T17:29:41.643Z,102069.41
2022-10-09T17:32:09.414Z,102061.72
2022-10-09T17:34:42.990Z,102059.13
2022-10-09T17:37:11.417Z,102058.25
2022-10-09T17:39:39.463Z,102054.81
2022-10-09T17:42:07.209Z,102016.06
2022-10-09T17:44:36.368Z,102055.91
2022-10-09T17:47:05.360Z,102042.41
2022-10-09T17:49:33.428Z,101939.00
2022-10-09T17:52:01.750Z,102011.44
2022-10-09T17:54:29.820Z,102047.81
2022-10-09T17:57:00.224Z,102043.41
2022-10-09T17:59:28.044Z,102018.44
2022-10-09T18:01:57.139Z,102038.34
2022-10-09T18:04:24.849Z,102037.41
2022-10-09T18:06:52.622Z,102004.72
2022-10-09T18:09:20.451Z,102027.16
2022-10-09T18:11:48.553Z,102025.44
2022-10-09T18:14:16.427Z,102024.69
2022-10-09T18:16:44.286Z,102026.38
2022-10-09T18:19:18.400Z,102027.25
2022-10-09T18:21:48.445Z,102021.19
2022-10-09T18:24:16.927Z,102020.31
2022-10-09T18:26:45.509Z,102011.84
2022-10-09T18:29:13.297Z,102012.72
2022-10-09T18:31:41.220Z,102009.16
2022-10-09T18:34:09.099Z,102014.28
2022-10-09T18:36:39.347Z,102009.09
2022-10-09T18:39:09.710Z,102002.34
2022-10-09T18:41:38.737Z,102009.28
2022-10-09T18:44:07.526Z,102004.91
2022-10-09T18:46:38.871Z,102005.78
2022-10-09T18:49:09.498Z,101998.09
2022-10-09T18:51:40.869Z,102011.03
2022-10-09T18:54:08.928Z,102003.28
2022-10-09T18:56:38.098Z,102006.72
2022-10-09T18:59:10.080Z,102000.69
2022-10-09T19:01:37.851Z,102003.22
2022-10-09T19:04:05.866Z,102002.38
2022-10-09T19:06:33.615Z,101996.38
2022-10-09T19:09:02.722Z,101988.66
2022-10-09T19:11:33.066Z,101987.78
2022-10-09T19:14:01.838Z,101977.44
2022-10-09T19:16:30.945Z,101983.44
2022-10-09T19:18:58.777Z,101989.44
2022-10-09T19:21:26.829Z,101960.97
2022-10-09T19:23:55.667Z,101974.75
2022-10-09T19:26:25.067Z,101967.91
2022-10-09T19:28:52.842Z,101970.44
2022-10-09T19:31:20.622Z,101967.03
2022-10-09T19:33:48.785Z,101966.97
2022-10-09T19:36:16.547Z,101965.25
2022-10-09T19:38:44.499Z,101963.53
2022-10-09T19:41:14.948Z,101955.75
2022-10-09T19:43:43.992Z,101947.19
2022-10-09T19:46:14.083Z,101950.66
2022-10-09T19:48:41.841Z,101923.03
2022-10-09T19:51:11.272Z,101949.78
2022-10-09T19:53:39.098Z,101951.47
2022-10-09T19:56:11.407Z,101942.84
2022-10-09T19:58:41.074Z,101941.97
2022-10-09T20:01:10.874Z,101939.34
2022-10-09T20:03:38.986Z,101934.97
2022-10-09T20:06:08.651Z,101940.06
2022-10-09T20:08:36.534Z,101933.31
2022-10-09T20:11:05.607Z,101945.34
2022-10-09T20:13:35.140Z,101934.13
2022-10-09T20:16:05.458Z,101939.19
2022-10-09T20:18:35.116Z,101939.22
2022-10-09T20:21:03.031Z,101927.97
2022-10-09T20:23:30.901Z,101927.97
2022-10-09T20:26:03.062Z,101919.41
2022-10-09T20:28:32.433Z,101921.81
2022-10-09T20:31:01.037Z,101914.84
2022-10-09T20:33:29.181Z,101877.00
2022-10-09T20:35:58.188Z,101924.38
2022-10-09T20:38:26.120Z,101917.41
2022-10-09T20:40:54.271Z,101916.72
2022-10-09T20:43:21.985Z,101909.47
2022-10-09T20:45:49.668Z,101907.84
2022-10-09T20:48:17.606Z,101912.31
2022-10-09T20:50:45.457Z,101907.88
2022-10-09T20:53:14.579Z,101900.13
2022-10-09T20:55:42.628Z,101902.88
2022-10-09T20:58:10.339Z,101901.81
2022-10-09T21:00:42.756Z,101901.84
2022-10-09T21:03:12.534Z,101882.69
2022-10-09T21:05:43.985Z,101893.13
2022-10-09T21:08:11.777Z,101884.72
2022-10-09T21:10:46.015Z,101849.25
2022-10-09T21:13:14.463Z,101889.69
2022-10-09T21:15:43.716Z,101882.63
2022-10-09T21:18:11.590Z,101807.84
2022-10-09T21:20:39.943Z,101876.88
2022-10-09T21:23:07.905Z,101876.78
2022-10-09T21:25:35.724Z,101842.38
2022-10-09T21:28:06.357Z,101835.50
2022-10-09T21:30:41.445Z,101872.59
2022-10-09T21:33:09.906Z,101882.81
2022-10-09T21:35:40.668Z,101869.88
2022-10-09T21:38:11.220Z,101874.25
2022-10-09T21:40:38.935Z,101872.56
2022-10-09T21:43:08.536Z,101868.91
2022-10-09T21:45:36.328Z,101866.47
2022-10-09T21:48:04.591Z,101863.06
2022-10-09T21:50:33.072Z,101857.81
2022-10-09T21:53:00.791Z,101852.84
2022-10-09T21:55:28.657Z,101855.19
2022-10-09T21:57:56.479Z,101846.69
2022-10-09T22:00:25.672Z,101841.53
2022-10-09T22:02:53.549Z,101839.94
2022-10-09T22:05:21.319Z,101829.47
2022-10-09T22:07:49.189Z,101825.16
2022-10-09T22:10:17.619Z,101824.34
2022-10-09T22:12:45.271Z,101830.38
2022-10-09T22:15:13.071Z,101827.00
2022-10-09T22:17:42.852Z,101817.53
2022-10-09T22:20:10.970Z,101824.44
2022-10-09T22:22:38.734Z,101814.09
2022-10-09T22:25:07.584Z,101815.66
2022-10-09T22:27:35.319Z,101816.66
2022-10-09T22:30:03.220Z,101818.34
2022-10-09T22:32:30.882Z,101813.28
2022-10-09T22:35:00.200Z,101803.03
2022-10-09T22:37:27.920Z,101811.59
2022-10-09T22:39:55.686Z,101805.59
2022-10-09T22:42:23.556Z,101801.28
2022-10-09T22:44:51.383Z,101803.81
2022-10-09T22:47:19.356Z,101800.31
2022-10-09T22:49:47.296Z,101795.13
2022-10-09T22:52:17.746Z,101791.78
2022-10-09T22:54:45.597Z,101790.84
2022-10-09T22:57:13.363Z,101775.88
2022-10-09T22:59:41.123Z,101783.03
2022-10-09T23:02:09.001Z,101772.63
2022-10-09T23:04:37.165Z,101770.91
2022-10-09T23:07:05.460Z,101764.09
2022-10-09T23:09:34.625Z,101753.72
2022-10-09T23:12:02.446Z,101765.81
2022-10-09T23:14:30.097Z,101757.19
2022-10-09T23:16:57.806Z,101686.66
2022-10-09T23:19:25.547Z,101748.72
2022-10-09T23:21:53.273Z,101743.41
2022-10-09T23:24:20.988Z,101745.00
2022-10-09T23:26:51.948Z,101716.72
2022-10-09T23:29:21.350Z,101727.88
2022-10-09T23:31:49.575Z,101727.84
2022-10-09T23:34:17.312Z,101721.00
2022-10-09T23:36:45.091Z,101724.56
2022-10-09T23:39:13.729Z,101727.19
2022-10-09T23:41:41.413Z,101722.72
2022-10-09T23:44:10.409Z,101719.31
2022-10-09T23:46:38.363Z,101715.03
2022-10-09T23:49:06.085Z,101716.72
2022-10-09T23:51:34.125Z,101713.25
2022-10-09T23:54:01.822Z,101708.97
2022-10-09T23:56:31.509Z,101712.53
2022-10-09T23:59:01.400Z,101703.03
